Time;durP1;ratioP1;P1;durP2;ratioP2;P2;SDS_P1;SDS_P2;PMS_P1;PMS_P2;Temp;Humidity;BMP_temperature;BMP_pressure;BME280_temperature;BME280_humidity;BME280_pressure;Samples;Min_cycle;Max_cycle;Signal;HPM_P1;HPM_P2
2023/01/02 00:01:49;;;;;;;7.28;2.15;;;8.60;99.90;;;;;;4992682;28;20502;-88
2023/01/02 00:04:31;;;;;;;5.75;2.30;;;8.50;99.90;;;;;;4974516;28;20120;-88
2023/01/02 00:07:05;;;;;;;5.32;2.00;;;7.80;99.90;;;;;;4977786;28;20128;-87
2023/01/02 00:09:41;;;;;;;;;;;;;;;;;;;;;
2023/01/02 00:12:09;;;;;;;4.82;2.20;;;8.50;99.90;;;;;;4992482;28;20064;-88
2023/01/02 00:14:41;;;;;;;6.38;1.65;;;8.50;99.90;;;;;;5010497;28;20054;-87
2023/01/02 00:17:09;;;;;;;6.10;2.10;;;8.50;99.90;;;;;;4992032;28;20125;-88
2023/01/02 00:19:35;;;;;;;4.53;2.15;;;8.60;99.90;;;;;;4994665;28;20165;-88
2023/01/02 00:22:03;;;;;;;5.88;1.95;;;8.50;99.90;;;;;;4991449;28;20127;-87
2023/01/02 00:24:29;;;;;;;4.78;1.83;;;8.50;99.90;;;;;;5007249;28;22312;-89
2023/01/02 00:26:58;;;;;;;3.97;2.22;;;8.00;99.90;;;;;;5006461;28;20542;-88
2023/01/02 00:29:24;;;;;;;4.68;2.08;;;7.80;99.90;;;;;;4991460;28;20053;-86
2023/01/02 00:31:53;;;;;;;6.05;2.05;;;8.40;99.90;;;;;;4994863;28;20400;-89
2023/01/02 00:34:39;;;;;;;5.38;1.95;;;8.50;99.90;;;;;;5002387;28;20511;-88
2023/01/02 00:37:05;;;;;;;3.92;1.58;;;8.50;99.90;;;;;;4995821;28;20088;-87
2023/01/02 00:39:38;;;;;;;5.50;2.20;;;9.00;99.90;;;;;;4990982;28;20104;-88
2023/01/02 00:42:06;;;;;;;4.38;1.70;;;8.50;99.90;;;;;;4978926;28;20112;-87
2023/01/02 00:44:37;;;;;;;5.25;1.48;;;8.40;99.90;;;;;;4993593;28;20057;-89
2023/01/02 00:47:03;;;;;;;5.57;1.90;;;8.40;99.90;;;;;;5012212;28;20056;-89
2023/01/02 00:49:31;;;;;;;4.93;1.70;;;8.50;99.90;;;;;;4995839;28;20053;-87
2023/01/02 00:51:57;;;;;;;3.95;1.70;;;8.50;99.90;;;;;;4974349;28;20108;-88
2023/01/02 00:54:25;;;;;;;4.70;1.73;;;8.40;99.90;;;;;;5000301;28;20041;-87
2023/01/02 00:56:51;;;;;;;3.38;1.67;;;8.40;99.90;;;;;;4990991;28;20053;-87
2023/01/02 00:59:19;;;;;;;4.78;1.90;;;8.50;99.90;;;;;;4994440;28;20041;-87
2023/01/02 01:01:51;;;;;;;4.68;1.90;;;8.40;99.90;;;;;;4994401;28;20297;-88
2023/01/02 01:04:20;;;;;;;4.38;2.05;;;8.40;99.90;;;;;;5003213;28;20574;-87
2023/01/02 01:06:46;;;;;;;4.90;2.05;;;8.50;99.90;;;;;;4997801;28;20058;-88
2023/01/02 01:09:12;;;;;;;4.85;2.10;;;8.50;99.90;;;;;;5005416;28;20060;-88
2023/01/02 01:11:38;;;;;;;4.72;2.08;;;8.40;99.90;;;;;;5027123;28;20037;-88
2023/01/02 01:14:06;;;;;;;3.95;2.10;;;8.50;99.90;;;;;;4997476;28;20054;-88
2023/01/02 01:16:32;;;;;;;4.88;1.88;;;8.40;99.90;;;;;;4979288;28;20042;-88
2023/01/02 01:19:04;;;;;;;4.63;2.28;;;8.20;99.90;;;;;;4994820;28;20415;-88
2023/01/02 01:21:32;;;;;;;3.47;1.73;;;8.50;99.90;;;;;;4994675;28;20136;-88
2023/01/02 01:23:58;;;;;;;5.18;2.00;;;8.40;99.90;;;;;;5012311;28;20039;-89
2023/01/02 01:26:26;;;;;;;4.32;2.35;;;7.50;99.90;;;;;;4998917;28;20042;-87
2023/01/02 01:28:53;;;;;;;3.88;2.00;;;8.40;99.90;;;;;;4996793;28;20034;-87
2023/01/02 01:31:20;;;;;;;3.95;1.85;;;8.50;99.90;;;;;;4997668;28;20050;-87
2023/01/02 01:33:56;;;;;;;3.05;1.73;;;8.50;99.90;;;;;;5007911;28;20072;-87
2023/01/02 01:36:24;;;;;;;3.50;2.10;;;8.50;99.90;;;;;;4997130;28;20395;-88
2023/01/02 01:38:50;;;;;;;3.53;1.95;;;8.50;99.90;;;;;;4979252;28;20171;-88
2023/01/02 01:41:41;;;;;;;3.75;1.60;;;8.00;99.90;;;;;;5008519;28;20581;-86
2023/01/02 01:44:41;;;;;;;3.33;1.75;;;8.50;99.90;;;;;;5015214;28;20100;-87
2023/01/02 01:47:22;;;;;;;3.78;1.92;;;8.60;99.90;;;;;;4995750;28;20058;-88
2023/01/02 01:50:05;;;;;;;4.10;2.00;;;8.50;99.90;;;;;;4993394;28;20064;-88
2023/01/02 01:52:39;;;;;;;3.40;2.22;;;8.50;99.90;;;;;;4998134;28;20375;-88
2023/01/02 01:55:17;;;;;;;4.22;2.10;;;7.60;99.90;;;;;;4996476;28;20051;-88
2023/01/02 01:57:53;;;;;;;3.38;2.28;;;8.60;99.90;;;;;;4991863;28;20585;-86
2023/01/02 02:00:22;;;;;;;4.32;3.20;;;8.60;99.90;;;;;;4995434;28;21093;-87
2023/01/02 02:02:53;;;;;;;4.20;2.83;;;8.70;99.90;;;;;;4998804;28;20403;-88
2023/01/02 02:05:28;;;;;;;5.07;3.10;;;8.70;99.90;;;;;;5012359;28;20708;-86
2023/01/02 02:08:19;;;;;;;4.20;3.20;;;8.70;99.90;;;;;;4995045;28;20797;-88
2023/01/02 02:10:50;;;;;;;4.60;3.30;;;8.70;99.90;;;;;;4968515;28;20062;-88
2023/01/02 02:13:18;;;;;;;4.72;3.67;;;8.70;99.90;;;;;;4994708;28;20041;-87
2023/01/02 02:16:03;;;;;;;5.88;3.55;;;8.70;99.90;;;;;;4978662;28;20045;-88
2023/01/02 02:18:47;;;;;;;4.70;3.78;;;8.70;99.90;;;;;;4994293;28;20037;-88
2023/01/02 02:21:21;;;;;;;5.30;3.78;;;8.80;99.90;;;;;;4995742;28;20052;-88
2023/01/02 02:24:23;;;;;;;5.63;3.85;;;8.80;99.90;;;;;;4991317;28;20487;-88
2023/01/02 02:27:24;;;;;;;5.57;4.13;;;8.70;99.90;;;;;;5003992;28;20513;-88
2023/01/02 02:30:02;;;;;;;5.40;4.35;;;8.80;99.90;;;;;;4989052;28;20326;-88
2023/01/02 02:32:51;;;;;;;5.65;4.20;;;7.60;99.90;;;;;;4991883;28;20084;-89
2023/01/02 02:35:34;;;;;;;8.00;4.15;;;9.20;99.90;;;;;;4988670;28;20081;-89
2023/01/02 02:38:08;;;;;;;7.25;4.82;;;8.80;99.90;;;;;;4990847;28;20049;-88
2023/01/02 02:40:56;;;;;;;7.95;5.40;;;9.00;99.90;;;;;;4992386;28;20096;-88
2023/01/02 02:43:43;;;;;;;7.68;5.15;;;8.80;99.90;;;;;;4995090;28;20057;-90
2023/01/02 02:46:44;;;;;;;11.00;6.35;;;8.90;99.90;;;;;;5009073;28;20046;-88
2023/01/02 02:49:14;;;;;;;9.95;6.68;;;8.90;99.90;;;;;;5007531;28;20529;-87
2023/01/02 02:51:58;;;;;;;10.98;7.38;;;9.00;99.90;;;;;;4992038;28;20054;-89
2023/01/02 02:54:35;;;;;;;13.63;7.80;;;8.80;99.90;;;;;;4994203;28;20069;-88
2023/01/02 02:57:11;;;;;;;12.82;8.23;;;8.80;99.90;;;;;;4992254;28;20056;-86
2023/01/02 02:59:38;;;;;;;15.13;9.55;;;8.90;99.90;;;;;;4993256;28;20380;-87
2023/01/02 03:02:07;;;;;;;16.00;10.43;;;8.80;99.90;;;;;;4992485;28;20045;-87
2023/01/02 03:04:33;;;;;;;17.92;9.68;;;8.90;99.90;;;;;;4996864;28;20053;-87
2023/01/02 03:07:27;;;;;;;15.55;10.77;;;8.20;99.90;;;;;;5009973;28;20050;-88
2023/01/02 03:10:08;;;;;;;15.88;10.23;;;9.00;99.90;;;;;;4987558;28;20049;-87
2023/01/02 03:12:57;;;;;;;15.57;10.25;;;9.10;99.90;;;;;;4991243;28;20086;-88
2023/01/02 03:15:38;;;;;;;14.85;10.38;;;8.90;99.90;;;;;;4992302;28;20475;-87
2023/01/02 03:18:14;;;;;;;20.42;12.38;;;8.90;99.90;;;;;;5007930;28;20527;-88
2023/01/02 03:20:49;;;;;;;18.02;12.88;;;9.60;99.90;;;;;;4991513;28;20115;-87
2023/01/02 03:23:22;;;;;;;18.60;12.65;;;8.90;99.90;;;;;;4990821;28;20096;-89
2023/01/02 03:25:50;;;;;;;23.27;14.77;;;9.10;99.90;;;;;;5006775;28;20042;-88
2023/01/02 03:28:22;;;;;;;24.27;15.13;;;9.20;99.90;;;;;;5010895;28;20116;-89
2023/01/02 03:30:55;;;;;;;26.02;14.10;;;9.20;99.90;;;;;;5005005;28;20045;-87
2023/01/02 03:33:26;;;;;;;26.35;15.30;;;9.30;99.90;;;;;;4992098;28;20569;-87
2023/01/02 03:35:57;;;;;;;23.50;15.90;;;9.40;99.90;;;;;;4988528;28;20338;-87
2023/01/02 03:38:35;;;;;;;25.33;15.82;;;9.30;99.90;;;;;;4992348;28;20474;-88
2023/01/02 03:41:14;;;;;;;26.20;16.50;;;9.40;99.90;;;;;;4990361;28;20041;-90
2023/01/02 03:43:43;;;;;;;25.38;16.02;;;9.20;99.90;;;;;;4988123;28;20600;-88
2023/01/02 03:46:35;;;;;;;25.52;17.00;;;8.60;99.90;;;;;;4989982;28;20049;-88
2023/01/02 03:49:20;;;;;;;20.30;15.10;;;9.50;99.90;;;;;;4987910;28;20134;-89
2023/01/02 03:51:50;;;;;;;25.73;16.90;;;9.40;99.90;;;;;;4989311;28;20049;-89
2023/01/02 03:54:21;;;;;;;23.63;16.08;;;9.40;99.90;;;;;;4992068;28;20252;-88
2023/01/02 03:57:16;;;;;;;27.33;16.35;;;9.40;99.90;;;;;;4992162;28;20049;-89
2023/01/02 04:00:24;;;;;;;25.27;17.13;;;9.50;99.90;;;;;;4994621;28;20045;-89
2023/01/02 04:03:13;;;;;;;22.52;15.32;;;9.60;99.90;;;;;;4988881;28;20081;-89
2023/01/02 04:05:44;;;;;;;18.85;14.55;;;9.50;99.90;;;;;;5008430;28;20050;-89
2023/01/02 04:08:27;;;;;;;19.25;14.50;;;9.50;99.90;;;;;;4990492;28;20042;-88
2023/01/02 04:10:59;;;;;;;17.73;15.15;;;9.50;99.90;;;;;;4985927;28;20049;-89
2023/01/02 04:13:38;;;;;;;16.40;12.98;;;9.40;99.90;;;;;;5005768;28;20072;-88
2023/01/02 04:16:08;;;;;;;15.77;12.73;;;8.20;99.90;;;;;;5007215;28;20050;-90
2023/01/02 04:18:47;;;;;;;15.77;12.82;;;9.40;99.90;;;;;;4989975;28;20045;-89
2023/01/02 04:21:18;;;;;;;17.08;12.68;;;9.30;99.90;;;;;;5022277;28;20270;-88
2023/01/02 04:24:14;;;;;;;15.93;12.00;;;9.30;99.90;;;;;;4988618;28;20069;-88
2023/01/02 04:26:56;;;;;;;17.38;12.20;;;9.20;99.90;;;;;;4996712;28;20459;-88
2023/01/02 04:29:24;;;;;;;15.45;12.45;;;9.20;99.90;;;;;;5009605;28;20052;-89
2023/01/02 04:32:15;;;;;;;15.02;12.32;;;9.10;99.90;;;;;;4990368;28;20403;-87
2023/01/02 04:34:43;;;;;;;15.88;11.77;;;9.20;99.90;;;;;;5002719;28;20057;-89
2023/01/02 04:37:32;;;;;;;16.17;13.40;;;9.20;99.90;;;;;;5010249;28;20042;-88
2023/01/02 04:40:01;;;;;;;;;;;9.10;99.90;;;;;;4992106;28;20056;-87
2023/01/02 04:42:29;;;;;;;19.10;13.32;;;9.00;99.90;;;;;;4989394;28;19922;-88
2023/01/02 04:44:55;;;;;;;20.10;14.63;;;9.00;99.90;;;;;;5001649;28;20041;-88
2023/01/02 04:47:21;;;;;;;24.27;15.40;;;8.40;99.90;;;;;;4990479;28;20049;-88
2023/01/02 04:49:47;;;;;;;26.25;16.20;;;9.10;99.90;;;;;;4993683;28;20168;-88
2023/01/02 04:52:15;;;;;;;29.00;15.73;;;9.00;99.90;;;;;;4993737;28;20073;-87
2023/01/02 04:54:50;;;;;;;29.25;16.02;;;8.90;99.90;;;;;;5010326;28;20042;-88
2023/01/02 04:57:15;;;;;;;24.35;15.52;;;9.00;99.90;;;;;;4992413;28;20257;-87
2023/01/02 04:59:43;;;;;;;30.48;16.48;;;9.00;99.90;;;;;;4985334;28;20112;-88
2023/01/02 05:02:09;;;;;;;37.47;16.63;;;9.00;99.90;;;;;;5009400;28;20053;-90
2023/01/02 05:04:53;;;;;;;31.80;17.20;;;8.90;99.90;;;;;;4986886;28;20487;-87
2023/01/02 05:07:19;;;;;;;34.67;14.50;;;8.90;99.90;;;;;;5014740;28;20087;-88
2023/01/02 05:10:04;;;;;;;25.05;8.77;;;8.80;99.90;;;;;;4970577;28;20129;-88
2023/01/02 05:12:33;;;;;;;12.77;5.33;;;8.80;99.90;;;;;;5004714;28;20064;-87
2023/01/02 05:15:05;;;;;;;8.82;3.55;;;8.60;99.90;;;;;;4993065;28;20296;-88
2023/01/02 05:17:35;;;;;;;9.25;2.40;;;8.50;99.90;;;;;;4991562;28;20054;-87
2023/01/02 05:20:03;;;;;;;5.90;2.22;;;7.60;99.90;;;;;;4988470;28;20058;-86
2023/01/02 05:25:16;;;;;;;6.32;1.52;;;8.20;99.90;;;;;;5005487;28;20045;-87
2023/01/02 05:27:44;;;;;;;4.35;1.38;;;8.10;99.90;;;;;;5007816;28;20434;-87
2023/01/02 05:30:19;;;;;;;9.20;1.55;;;8.00;99.90;;;;;;4991242;28;20056;-87
2023/01/02 05:32:45;;;;;;;5.78;1.40;;;7.90;99.90;;;;;;5008674;28;20064;-87
2023/01/02 05:35:11;;;;;;;4.47;1.60;;;7.90;99.90;;;;;;4978897;28;20054;-87
2023/01/02 05:37:39;;;;;;;5.25;1.60;;;7.90;99.90;;;;;;4991761;28;20073;-85
2023/01/02 05:40:05;;;;;;;10.45;1.95;;;7.90;99.90;;;;;;4972533;28;20099;-88
2023/01/02 05:42:31;;;;;;;7.25;1.25;;;7.80;99.90;;;;;;4992315;28;20049;-89
2023/01/02 05:44:57;;;;;;;5.30;1.48;;;7.80;99.90;;;;;;4991391;28;20402;-88
2023/01/02 05:47:23;;;;;;;5.70;1.83;;;7.70;99.90;;;;;;4990242;28;20548;-88
2023/01/02 05:49:57;;;;;;;5.55;1.63;;;7.80;99.90;;;;;;4992146;28;20479;-88
2023/01/02 05:52:23;;;;;;;4.30;2.25;;;7.70;99.90;;;;;;4998432;28;20050;-88
2023/01/02 05:54:54;;;;;;;4.95;2.50;;;7.90;99.90;;;;;;4986031;28;20038;-87
2023/01/02 05:57:22;;;;;;;7.90;1.90;;;7.80;99.90;;;;;;4997071;28;20511;-87
2023/01/02 05:59:48;;;;;;;9.88;1.75;;;7.70;99.90;;;;;;4996545;28;20045;-87
2023/01/02 06:02:17;;;;;;;6.30;1.20;;;7.70;99.90;;;;;;4978195;28;20054;-87
2023/01/02 06:04:43;;;;;;;5.35;1.10;;;7.70;99.90;;;;;;4994245;28;20376;-88
2023/01/02 06:07:13;;;;;;;4.80;1.38;;;8.70;99.90;;;;;;5008070;28;20050;-88
2023/01/02 06:09:39;;;;;;;4.82;1.00;;;7.80;99.90;;;;;;4989088;28;20129;-87
2023/01/02 06:12:07;;;;;;;5.15;1.15;;;7.80;99.90;;;;;;4992431;28;20060;-88
2023/01/02 06:14:33;;;;;;;2.97;1.02;;;7.80;99.90;;;;;;4995284;28;20050;-87
2023/01/02 06:17:02;;;;;;;3.20;1.00;;;8.80;99.90;;;;;;4990271;28;20100;-87
2023/01/02 06:19:27;;;;;;;3.00;0.93;;;7.80;99.90;;;;;;4987954;28;20045;-85
2023/01/02 06:21:53;;;;;;;5.60;1.15;;;7.60;99.90;;;;;;4993977;28;20556;-85
2023/01/02 06:24:19;;;;;;;4.05;1.00;;;7.70;99.90;;;;;;5007443;28;20051;-87
2023/01/02 06:26:45;;;;;;;5.05;1.10;;;7.60;99.90;;;;;;4974755;28;20513;-88
2023/01/02 06:29:11;;;;;;;3.22;1.10;;;7.60;99.90;;;;;;4974638;28;20253;-86
2023/01/02 06:31:37;;;;;;;6.60;1.13;;;7.70;99.90;;;;;;4994832;28;20046;-88
2023/01/02 06:34:09;;;;;;;4.88;1.17;;;7.70;99.90;;;;;;4990182;28;20081;-87
2023/01/02 06:36:34;;;;;;;7.28;1.10;;;7.80;99.90;;;;;;4991811;28;20038;-86
2023/01/02 06:39:01;;;;;;;6.07;1.42;;;7.60;99.90;;;;;;4990648;28;20055;-87
2023/01/02 06:41:27;;;;;;;5.65;1.40;;;7.70;99.90;;;;;;5008112;28;20048;-88
2023/01/02 06:43:53;;;;;;;6.05;1.40;;;7.70;99.90;;;;;;4991198;28;20081;-88
2023/01/02 06:46:21;;;;;;;3.88;1.42;;;7.60;99.90;;;;;;4988123;28;20128;-87
2023/01/02 06:48:47;;;;;;;4.45;1.40;;;7.60;99.90;;;;;;5006800;28;20481;-88
2023/01/02 06:51:18;;;;;;;5.10;1.42;;;7.70;99.90;;;;;;4990184;28;20396;-87
2023/01/02 06:53:44;;;;;;;8.18;1.50;;;7.70;99.90;;;;;;4987844;28;20049;-88
2023/01/02 06:56:12;;;;;;;4.13;1.48;;;7.60;99.90;;;;;;4992733;28;20049;-87
2023/01/02 06:58:38;;;;;;;7.47;1.60;;;7.60;99.90;;;;;;5004174;28;20049;-87
2023/01/02 07:01:08;;;;;;;5.53;1.30;;;7.60;99.90;;;;;;4994212;28;20144;-87
2023/01/02 07:03:44;;;;;;;;;;;;;;;;;;;;;
2023/01/02 07:06:13;;;;;;;5.15;1.65;;;7.60;99.90;;;;;;5005981;28;20050;-88
2023/01/02 07:08:47;;;;;;;5.75;1.45;;;7.60;99.90;;;;;;4990674;28;20038;-88
2023/01/02 07:11:18;;;;;;;4.45;1.38;;;7.50;99.90;;;;;;4992269;28;20050;-88
2023/01/02 07:13:45;;;;;;;6.20;1.80;;;6.90;99.90;;;;;;4988003;28;20057;-87
2023/01/02 07:16:13;;;;;;;7.93;1.60;;;7.60;99.90;;;;;;4993854;28;20053;-87
2023/01/02 07:18:44;;;;;;;4.72;1.70;;;7.50;99.90;;;;;;4991184;28;20065;-88
2023/01/02 07:21:16;;;;;;;6.95;1.48;;;7.60;99.90;;;;;;4976846;28;20140;-86
2023/01/02 07:23:45;;;;;;;5.30;1.70;;;7.50;99.90;;;;;;5005336;28;20085;-87
2023/01/02 07:26:14;;;;;;;6.32;1.50;;;7.60;99.90;;;;;;4992992;28;20160;-88
2023/01/02 07:28:42;;;;;;;10.43;1.90;;;7.50;99.90;;;;;;4993942;28;20034;-87
2023/01/02 07:31:19;;;;;;;9.00;1.60;;;7.60;99.90;;;;;;5010749;28;20065;-87
2023/01/02 07:33:46;;;;;;;7.55;1.90;;;7.60;99.90;;;;;;5004342;28;20042;-87
2023/01/02 07:36:15;;;;;;;9.80;2.00;;;7.30;99.90;;;;;;4989515;28;20080;-86
2023/01/02 07:38:41;;;;;;;4.85;1.70;;;7.60;99.90;;;;;;4988662;28;20041;-87
2023/01/02 07:41:15;;;;;;;7.95;2.00;;;6.90;99.90;;;;;;4990700;28;20064;-86
2023/01/02 07:43:42;;;;;;;5.40;1.60;;;6.80;99.90;;;;;;4990111;28;20084;-87
2023/01/02 07:46:07;;;;;;;4.28;1.40;;;7.50;99.90;;;;;;5000903;28;20044;-86
2023/01/02 07:48:33;;;;;;;10.65;1.60;;;7.60;99.90;;;;;;4990046;28;20041;-87
2023/01/02 07:51:04;;;;;;;4.85;1.50;;;7.50;99.90;;;;;;4989546;28;20383;-88
2023/01/02 07:53:32;;;;;;;4.82;1.10;;;7.70;99.90;;;;;;4991606;28;20655;-88
2023/01/02 07:56:01;;;;;;;6.38;1.17;;;7.60;99.90;;;;;;5008872;28;20049;-93
2023/01/02 07:58:28;;;;;;;2.78;1.20;;;7.50;99.90;;;;;;5001644;28;20047;-87
2023/01/02 08:00:54;;;;;;;4.20;1.02;;;7.50;99.90;;;;;;4989418;28;20049;-90
2023/01/02 08:03:21;;;;;;;3.00;1.08;;;7.60;99.90;;;;;;5003087;28;20720;-89
2023/01/02 08:06:08;;;;;;;1.90;0.90;;;7.60;99.90;;;;;;4990277;28;20045;-91
2023/01/02 08:09:00;;;;;;;3.85;0.85;;;7.50;99.90;;;;;;5008583;28;20050;-91
2023/01/02 08:11:37;;;;;;;4.75;1.25;;;7.60;99.90;;;;;;5011271;28;20518;-91
2023/01/02 08:17:40;;;;;;;3.53;1.13;;;7.60;99.90;;;;;;5008550;28;20047;-89
2023/01/02 08:20:26;;;;;;;2.35;1.30;;;7.70;99.90;;;;;;5005754;28;20053;-89
2023/01/02 08:22:57;;;;;;;4.70;1.08;;;7.80;99.90;;;;;;4983034;28;20057;-88
2023/01/02 08:25:28;;;;;;;2.72;0.90;;;7.70;99.90;;;;;;5009260;28;20227;-92
2023/01/02 08:27:53;;;;;;;4.65;0.90;;;7.60;99.90;;;;;;4972428;28;20140;-87
2023/01/02 08:30:19;;;;;;;5.25;1.10;;;7.60;99.90;;;;;;4992935;28;20049;-88
2023/01/02 08:33:03;;;;;;;5.75;1.40;;;7.60;99.90;;;;;;4993720;28;20194;-89
2023/01/02 08:35:42;;;;;;;5.97;1.25;;;7.70;99.90;;;;;;4993144;28;20072;-92
2023/01/02 08:38:18;;;;;;;3.15;1.30;;;7.70;99.90;;;;;;5007474;28;20157;-90
2023/01/02 08:40:44;;;;;;;5.47;1.48;;;8.30;99.90;;;;;;4986416;28;20112;-83
2023/01/02 08:43:24;;;;;;;4.68;1.35;;;7.70;99.90;;;;;;4994376;28;20060;-92
2023/01/02 08:45:50;;;;;;;3.83;1.70;;;8.50;99.90;;;;;;5010357;28;20491;-91
2023/01/02 08:48:57;;;;;;;5.18;1.70;;;7.80;99.90;;;;;;4993135;28;20060;-93
2023/01/02 08:51:45;;;;;;;7.80;1.60;;;8.00;99.90;;;;;;4994327;28;20073;-93
2023/01/02 08:54:23;;;;;;;4.32;1.50;;;7.80;99.90;;;;;;4978236;28;20053;-93
2023/01/02 08:56:49;;;;;;;5.85;1.90;;;7.50;99.90;;;;;;4989731;28;20052;-89
2023/01/02 08:59:15;;;;;;;8.32;1.67;;;7.90;99.90;;;;;;4990467;28;20050;-83
2023/01/02 09:01:41;;;;;;;6.32;1.98;;;7.70;99.90;;;;;;4988884;28;20045;-85
2023/01/02 09:04:08;;;;;;;4.00;1.50;;;7.80;99.90;;;;;;4986677;28;20045;-82
2023/01/02 09:06:36;;;;;;;11.40;1.60;;;7.90;99.90;;;;;;4986415;28;20072;-86
2023/01/02 09:09:03;;;;;;;6.47;1.90;;;7.90;99.90;;;;;;4968260;28;20119;-83
2023/01/02 09:11:33;;;;;;;4.00;1.50;;;7.70;99.90;;;;;;4986740;28;20080;-84
2023/01/02 09:14:00;;;;;;;8.10;1.60;;;7.80;99.90;;;;;;4988210;28;20049;-88
2023/01/02 09:16:35;;;;;;;5.05;1.50;;;7.80;99.90;;;;;;5002509;28;20045;-88
2023/01/02 09:19:11;;;;;;;3.67;1.17;;;7.80;99.90;;;;;;4991004;28;20554;-87
2023/01/02 09:22:00;;;;;;;1.90;1.00;;;7.80;99.90;;;;;;4991839;28;20081;-89
2023/01/02 09:24:29;;;;;;;1.33;0.80;;;8.00;99.90;;;;;;5001914;28;20169;-88
2023/01/02 09:27:13;;;;;;;4.82;0.90;;;8.00;99.90;;;;;;4995687;28;20052;-87
2023/01/02 09:29:45;;;;;;;2.65;0.80;;;8.80;99.90;;;;;;5014575;28;20100;-86
2023/01/02 09:32:14;;;;;;;4.00;0.90;;;7.40;99.90;;;;;;4978677;28;20059;-88
2023/01/02 09:34:49;;;;;;;4.28;1.20;;;6.90;99.90;;;;;;4988639;28;20132;-87
2023/01/02 09:37:32;;;;;;;7.18;1.60;;;8.10;99.90;;;;;;5006232;28;20045;-90
2023/01/02 09:40:23;;;;;;;3.67;1.08;;;8.00;99.90;;;;;;5011865;28;20053;-88
2023/01/02 09:42:54;;;;;;;3.08;0.95;;;8.00;99.90;;;;;;5010930;28;20065;-88
2023/01/02 09:46:01;;;;;;;;;;;;;;;;;;;;;
2023/01/02 09:48:41;;;;;;;6.60;1.63;;;8.00;99.90;;;;;;4887966;29;20088;-87
2023/01/02 09:51:11;;;;;;;10.93;1.33;;;8.00;99.90;;;;;;5005953;28;20837;-82
2023/01/02 09:53:37;;;;;;;9.50;1.55;;;7.90;99.90;;;;;;4990710;28;20578;-84
2023/01/02 09:56:21;;;;;;;7.55;1.75;;;8.00;99.90;;;;;;4975989;28;20053;-83
2023/01/02 09:58:55;;;;;;;7.53;1.13;;;8.00;99.90;;;;;;4992795;28;20080;-85
2023/01/02 10:01:31;;;;;;;10.82;1.67;;;7.90;99.90;;;;;;5007966;28;20046;-83
2023/01/02 10:04:44;;;;;;;13.32;1.55;;;7.90;99.90;;;;;;5007827;28;20138;-85
2023/01/02 10:07:44;;;;;;;10.57;2.30;;;8.00;99.90;;;;;;4949399;28;20065;-88
2023/01/02 10:10:39;;;;;;;10.15;1.70;;;8.00;99.90;;;;;;4959616;28;20054;-86
2023/01/02 10:13:40;;;;;;;8.85;1.52;;;8.00;99.90;;;;;;4995854;28;20054;-87
2023/01/02 10:16:14;;;;;;;8.80;1.58;;;7.90;99.90;;;;;;4982325;28;20145;-88
2023/01/02 10:18:42;;;;;;;9.40;1.52;;;6.90;99.90;;;;;;4993216;28;20041;-85
2023/01/02 10:21:27;;;;;;;12.20;1.60;;;8.00;99.90;;;;;;5021896;28;20057;-89
2023/01/02 10:24:05;;;;;;;10.88;1.73;;;7.20;99.90;;;;;;4996408;28;20134;-86
2023/01/02 10:26:43;;;;;;;7.85;1.40;;;8.50;99.90;;;;;;5007308;28;20050;-91
2023/01/02 10:29:34;;;;;;;9.23;1.70;;;8.50;99.90;;;;;;4991394;28;20041;-86
2023/01/02 10:32:04;;;;;;;10.25;1.35;;;8.90;99.90;;;;;;5007792;28;20045;-86
2023/01/02 10:34:41;;;;;;;7.25;1.38;;;9.60;99.90;;;;;;4991853;28;20055;-87
2023/01/02 10:37:12;;;;;;;7.28;1.17;;;10.00;99.90;;;;;;4992544;28;20673;-85
2023/01/02 10:39:42;;;;;;;9.70;1.45;;;10.20;99.90;;;;;;4988768;28;20599;-86
2023/01/02 10:42:16;;;;;;;3.15;1.02;;;10.30;99.90;;;;;;5007649;28;20089;-86
2023/01/02 10:44:46;;;;;;;8.32;1.30;;;10.10;99.90;;;;;;4993903;28;20096;-85
2023/01/02 10:47:31;;;;;;;4.30;1.20;;;9.60;99.90;;;;;;5001468;28;20053;-86
2023/01/02 10:50:00;;;;;;;10.00;2.05;;;9.50;99.90;;;;;;5004834;28;20046;-88
2023/01/02 10:52:34;;;;;;;6.15;1.23;;;9.30;99.90;;;;;;4990706;28;20050;-85
2023/01/02 10:55:31;;;;;;;6.20;1.50;;;9.30;99.90;;;;;;5005354;28;20054;-87
2023/01/02 10:58:21;;;;;;;5.78;1.50;;;9.10;99.90;;;;;;4980289;28;20046;-85
2023/01/02 11:00:49;;;;;;;6.88;1.67;;;9.10;99.90;;;;;;4990972;28;20333;-85
2023/01/02 11:03:24;;;;;;;8.07;2.65;;;8.90;99.90;;;;;;5008223;28;20041;-86
2023/01/02 11:06:01;;;;;;;6.13;1.30;;;8.80;99.90;;;;;;5011273;28;20081;-89
2023/01/02 11:08:38;;;;;;;10.48;1.48;;;8.80;99.90;;;;;;4988047;28;20045;-86
2023/01/02 11:11:16;;;;;;;7.07;1.38;;;8.80;99.90;;;;;;5008567;28;20156;-87
2023/01/02 11:14:26;;;;;;;9.00;1.90;;;8.70;99.90;;;;;;4991939;28;20050;-89
2023/01/02 11:20:58;;;;;;;;;;;;;;;;;;;;;
2023/01/02 11:24:18;;;;;;;;;;;;;;;;;;;;;
2023/01/02 11:26:58;;;;;;;;;;;;;;;;;;;;;
2023/01/02 11:29:36;;;;;;;5.53;1.30;;;8.60;99.90;;;;;;5008095;28;20075;-86
2023/01/02 11:32:05;;;;;;;8.02;1.98;;;8.60;99.90;;;;;;5006775;28;20172;-86
2023/01/02 11:34:52;;;;;;;9.25;1.80;;;8.70;99.90;;;;;;4986166;28;20053;-85
2023/01/02 11:37:18;;;;;;;9.02;2.17;;;8.70;99.90;;;;;;4989303;28;21217;-83
2023/01/02 11:40:01;;;;;;;11.55;1.80;;;8.70;99.90;;;;;;5011937;28;20115;-84
2023/01/02 11:45:29;;;;;;;9.00;1.77;;;8.80;99.90;;;;;;5011154;28;20517;-85
2023/01/02 11:48:05;;;;;;;8.25;1.73;;;8.70;99.90;;;;;;5008782;28;20057;-85
2023/01/02 11:50:34;;;;;;;10.15;2.05;;;7.60;99.90;;;;;;4990644;28;20508;-84
2023/01/02 11:53:17;;;;;;;7.90;1.98;;;8.80;99.90;;;;;;4996468;28;20045;-85
2023/01/02 11:55:57;;;;;;;11.07;1.75;;;10.30;99.90;;;;;;5012014;28;20049;-85
2023/01/02 11:58:31;;;;;;;16.98;2.55;;;8.30;99.90;;;;;;4990588;28;20092;-84
2023/01/02 12:01:17;;;;;;;18.95;3.42;;;8.70;99.90;;;;;;4994566;28;20282;-84
2023/01/02 12:03:43;;;;;;;17.67;2.40;;;8.70;99.90;;;;;;4994682;28;20072;-83
2023/01/02 12:06:42;;;;;;;11.65;2.63;;;8.80;99.90;;;;;;5011876;28;20050;-84
2023/01/02 12:09:20;;;;;;;16.95;2.47;;;8.90;99.90;;;;;;4995777;28;20049;-84
2023/01/02 12:12:27;;;;;;;17.02;3.33;;;8.80;99.90;;;;;;5008565;28;20132;-84
2023/01/02 12:14:59;;;;;;;12.23;2.92;;;8.70;99.90;;;;;;4988288;28;20045;-85
2023/01/02 12:17:50;;;;;;;17.92;2.90;;;8.80;99.90;;;;;;4990014;28;20498;-84
2023/01/02 12:20:23;;;;;;;14.30;3.03;;;8.80;99.90;;;;;;5022656;28;20050;-85
2023/01/02 12:23:08;;;;;;;9.82;2.60;;;8.90;99.90;;;;;;5006133;28;20456;-84
2023/01/02 12:25:56;;;;;;;13.52;2.90;;;8.80;99.90;;;;;;4992736;28;20045;-83
2023/01/02 12:28:31;;;;;;;14.75;2.60;;;9.00;99.90;;;;;;5003724;28;20539;-84
2023/01/02 12:31:18;;;;;;;10.75;2.22;;;8.80;99.90;;;;;;5011601;28;20045;-85
2023/01/02 12:34:21;;;;;;;12.85;3.03;;;8.90;99.90;;;;;;5004751;28;20053;-84
2023/01/02 12:37:24;;;;;;;8.45;2.15;;;8.80;99.90;;;;;;5007558;28;20168;-84
2023/01/02 12:40:18;;;;;;;13.40;2.63;;;8.80;99.90;;;;;;5004917;28;20054;-84
2023/01/02 12:42:53;;;;;;;12.38;2.05;;;8.70;99.90;;;;;;4984139;28;20061;-83
2023/01/02 12:45:31;;;;;;;14.20;2.70;;;8.70;99.90;;;;;;5004444;28;20063;-84
2023/01/02 12:48:32;;;;;;;15.57;2.78;;;8.70;99.90;;;;;;5005538;28;20050;-83
2023/01/02 12:51:11;;;;;;;11.88;2.60;;;8.60;99.90;;;;;;4994960;28;20831;-83
2023/01/02 12:54:03;;;;;;;13.13;2.55;;;8.60;99.90;;;;;;5007080;28;20046;-84
2023/01/02 12:56:41;;;;;;;20.23;2.35;;;8.60;99.90;;;;;;4994139;28;20096;-85
2023/01/02 12:59:50;;;;;;;11.93;2.65;;;8.60;99.90;;;;;;5009905;28;20151;-83
2023/01/02 13:02:19;;;;;;;20.80;3.30;;;8.60;99.90;;;;;;5000338;28;20056;-84
2023/01/02 13:04:54;;;;;;;11.15;2.45;;;8.60;99.90;;;;;;4998658;28;20573;-85
2023/01/02 13:07:19;;;;;;;16.83;3.42;;;8.60;99.90;;;;;;5011619;28;20069;-85
2023/01/02 13:09:47;;;;;;;13.75;2.70;;;8.60;99.90;;;;;;4999060;28;20807;-84
2023/01/02 13:12:24;;;;;;;13.13;2.63;;;8.60;99.90;;;;;;5010833;28;20045;-84
2023/01/02 13:15:02;;;;;;;15.88;2.83;;;8.60;99.90;;;;;;5012328;28;20689;-83
2023/01/02 13:17:49;;;;;;;11.88;2.50;;;7.50;99.90;;;;;;4997112;28;20551;-85
2023/01/02 13:20:42;;;;;;;11.90;2.67;;;8.60;99.90;;;;;;5005409;28;20499;-85
2023/01/02 13:23:32;;;;;;;13.25;2.40;;;8.80;99.90;;;;;;4990178;28;20053;-85
2023/01/02 13:26:05;;;;;;;14.38;2.97;;;8.70;99.90;;;;;;4989142;28;20045;-86
2023/01/02 13:28:34;;;;;;;14.40;2.95;;;8.70;99.90;;;;;;4991825;28;20195;-83
2023/01/02 13:31:06;;;;;;;13.52;3.22;;;8.20;99.90;;;;;;4996252;28;20058;-84
2023/01/02 13:33:40;;;;;;;16.42;2.70;;;8.60;99.90;;;;;;4990659;28;20053;-83
2023/01/02 13:36:35;;;;;;;12.00;2.60;;;8.70;99.90;;;;;;4993037;28;20189;-84
2023/01/02 13:39:13;;;;;;;13.38;3.92;;;9.40;99.90;;;;;;5011715;28;20049;-83
2023/01/02 13:44:46;;;;;;;14.70;2.70;;;8.10;99.90;;;;;;5009087;28;20042;-84
2023/01/02 13:47:23;;;;;;;12.43;2.72;;;8.50;99.90;;;;;;5005736;28;20058;-84
2023/01/02 13:50:16;;;;;;;10.23;2.95;;;8.60;99.90;;;;;;5010840;28;20547;-84
2023/01/02 13:53:09;;;;;;;12.73;2.35;;;8.50;99.90;;;;;;4981755;28;20053;-84
2023/01/02 13:55:58;;;;;;;9.25;2.70;;;8.40;99.90;;;;;;5012667;28;20077;-83
2023/01/02 13:58:47;;;;;;;15.15;3.40;;;8.50;99.90;;;;;;4989324;28;20414;-83